createdAt,value
2023-05-24T00:01:57.111Z,14.88
2023-05-24T00:04:26.153Z,14.85
2023-05-24T00:06:55.153Z,14.80
2023-05-24T00:09:23.620Z,14.79
2023-05-24T00:11:53.278Z,14.77
2023-05-24T00:14:21.529Z,14.71
2023-05-24T00:16:49.746Z,14.72
2023-05-24T00:19:18.566Z,14.71
2023-05-24T00:21:48.001Z,14.68
2023-05-24T00:24:17.353Z,14.63
2023-05-24T00:26:45.906Z,14.62
2023-05-24T00:29:15.759Z,14.63
2023-05-24T00:31:43.935Z,14.56
2023-05-24T00:34:12.386Z,14.55
2023-05-24T00:36:40.697Z,14.63
2023-05-24T00:39:08.922Z,14.54
2023-05-24T00:41:37.061Z,14.51
2023-05-24T00:44:05.184Z,14.51
2023-05-24T00:46:35.854Z,14.52
2023-05-24T00:49:05.224Z,14.51
2023-05-24T00:51:34.134Z,14.43
2023-05-24T00:54:02.398Z,14.42
2023-05-24T00:56:31.380Z,14.41
2023-05-24T00:59:00.101Z,14.36
2023-05-24T01:01:31.409Z,14.36
2023-05-24T01:04:00.988Z,14.35
2023-05-24T01:06:30.512Z,14.29
2023-05-24T01:09:15.149Z,14.30
2023-05-24T01:12:12.218Z,14.27
2023-05-24T01:14:54.785Z,14.28
2023-05-24T01:17:27.883Z,14.28
2023-05-24T01:20:02.430Z,14.27
2023-05-24T01:22:49.026Z,14.25
2023-05-24T01:25:30.355Z,14.25
2023-05-24T01:28:01.211Z,14.29
2023-05-24T01:30:30.101Z,14.27
2023-05-24T01:32:58.759Z,14.24
2023-05-24T01:35:27.004Z,14.24
2023-05-24T01:37:55.156Z,14.20
2023-05-24T01:40:23.539Z,14.17
2023-05-24T01:43:04.360Z,14.17
2023-05-24T01:45:38.126Z,14.16
2023-05-24T01:48:19.053Z,14.14
2023-05-24T01:50:51.244Z,14.14
2023-05-24T01:53:21.414Z,14.10
2023-05-24T01:55:51.135Z,14.07
2023-05-24T01:58:24.054Z,14.08
2023-05-24T02:00:53.258Z,14.10
2023-05-24T02:03:22.451Z,14.13
2023-05-24T02:05:50.661Z,14.13
2023-05-24T02:08:19.123Z,14.11
2023-05-24T02:10:47.297Z,14.04
2023-05-24T02:13:16.379Z,13.98
2023-05-24T02:15:47.947Z,13.97
2023-05-24T02:18:18.714Z,13.93
2023-05-24T02:20:47.199Z,13.93
2023-05-24T02:23:15.602Z,13.92
2023-05-24T02:25:44.033Z,13.90
2023-05-24T02:28:12.191Z,13.90
2023-05-24T02:30:40.809Z,13.90
2023-05-24T02:33:10.646Z,13.88
2023-05-24T02:35:39.254Z,13.83
2023-05-24T02:38:07.417Z,13.84
2023-05-24T02:40:35.897Z,13.81
2023-05-24T02:43:04.032Z,13.78
2023-05-24T02:45:32.283Z,13.77
2023-05-24T02:48:00.529Z,13.73
2023-05-24T02:50:30.099Z,13.72
2023-05-24T02:52:58.284Z,13.69
2023-05-24T02:55:27.023Z,13.68
2023-05-24T02:57:55.195Z,13.66
2023-05-24T03:00:23.601Z,13.67
2023-05-24T03:02:52.703Z,13.63
2023-05-24T03:05:21.364Z,13.59
2023-05-24T03:07:50.933Z,13.63
2023-05-24T03:10:19.267Z,13.58
2023-05-24T03:12:47.500Z,13.55
2023-05-24T03:15:15.652Z,13.56
2023-05-24T03:17:43.862Z,13.53
2023-05-24T03:20:13.253Z,13.51
2023-05-24T03:22:41.489Z,13.48
2023-05-24T03:25:11.583Z,13.50
2023-05-24T03:27:39.858Z,13.49
2023-05-24T03:30:09.488Z,13.46
2023-05-24T03:32:37.680Z,13.43
2023-05-24T03:35:06.576Z,13.39
2023-05-24T03:37:34.734Z,13.41
2023-05-24T03:40:04.620Z,13.40
2023-05-24T03:42:34.134Z,13.37
2023-05-24T03:45:02.329Z,13.37
2023-05-24T03:47:30.625Z,13.38
2023-05-24T03:49:58.915Z,13.39
2023-05-24T03:52:27.420Z,13.37
2023-05-24T03:54:55.640Z,13.41
2023-05-24T03:57:23.893Z,13.38
2023-05-24T03:59:53.429Z,13.34
2023-05-24T04:02:21.697Z,13.32
2023-05-24T04:04:49.902Z,13.30
2023-05-24T04:07:18.301Z,13.28
2023-05-24T04:09:46.493Z,13.30
2023-05-24T04:12:14.730Z,13.28
2023-05-24T04:14:42.872Z,13.25
2023-05-24T04:17:12.654Z,13.23
2023-05-24T04:19:40.904Z,13.23
2023-05-24T04:22:09.248Z,13.24
2023-05-24T04:24:37.521Z,13.28
2023-05-24T04:27:05.907Z,13.24
2023-05-24T04:29:34.120Z,13.23
2023-05-24T04:32:02.421Z,13.19
2023-05-24T04:34:33.978Z,13.21
2023-05-24T04:37:02.195Z,13.20
2023-05-24T04:39:31.522Z,13.26
2023-05-24T04:42:00.726Z,13.31
2023-05-24T04:44:28.930Z,13.33
2023-05-24T04:46:58.024Z,13.45
2023-05-24T04:49:26.380Z,13.63
2023-05-24T04:51:56.040Z,13.87
2023-05-24T04:54:24.392Z,14.06
2023-05-24T04:56:52.759Z,14.26
2023-05-24T04:59:20.948Z,14.36
2023-05-24T05:01:49.119Z,14.38
2023-05-24T05:04:17.565Z,14.48
2023-05-24T05:06:45.876Z,14.50
2023-05-24T05:09:16.078Z,14.48
2023-05-24T05:11:44.462Z,14.37
2023-05-24T05:14:12.606Z,14.18
2023-05-24T05:16:41.406Z,14.15
2023-05-24T05:19:09.617Z,14.04
2023-05-24T05:21:39.804Z,14.03
2023-05-24T05:24:07.948Z,14.01
2023-05-24T05:26:38.701Z,13.99
2023-05-24T05:29:06.857Z,14.05
2023-05-24T05:31:35.159Z,14.24
2023-05-24T05:34:03.283Z,14.36
2023-05-24T05:36:32.529Z,14.33
2023-05-24T05:39:00.745Z,14.24
2023-05-24T05:41:28.840Z,14.26
2023-05-24T05:43:58.471Z,14.29
2023-05-24T05:46:26.713Z,14.31
2023-05-24T05:48:54.955Z,14.36
2023-05-24T05:51:23.121Z,14.41
2023-05-24T05:53:51.678Z,14.45
2023-05-24T05:56:19.902Z,14.44
2023-05-24T05:58:48.120Z,14.46
2023-05-24T06:01:18.020Z,14.52
2023-05-24T06:03:46.410Z,14.61
2023-05-24T06:06:14.706Z,14.70
2023-05-24T06:08:42.852Z,14.99
2023-05-24T06:11:11.234Z,15.15
2023-05-24T06:13:39.364Z,15.20
2023-05-24T06:16:08.667Z,15.34
2023-05-24T06:18:38.686Z,15.41
2023-05-24T06:21:06.869Z,15.53
2023-05-24T06:23:34.956Z,15.64
2023-05-24T06:26:03.343Z,15.98
2023-05-24T06:28:31.666Z,16.29
2023-05-24T06:30:59.858Z,16.69
2023-05-24T06:33:28.418Z,16.99
2023-05-24T06:35:57.922Z,17.08
2023-05-24T06:38:27.727Z,17.13
2023-05-24T06:40:55.917Z,17.38
2023-05-24T06:43:24.120Z,17.53
2023-05-24T06:45:52.228Z,17.49
2023-05-24T06:48:20.442Z,17.39
2023-05-24T06:50:48.715Z,17.19
2023-05-24T06:53:18.235Z,17.01
2023-05-24T06:55:46.424Z,16.77
2023-05-24T06:58:14.639Z,16.64
2023-05-24T07:00:43.695Z,16.38
2023-05-24T07:03:14.221Z,16.33
2023-05-24T07:05:42.628Z,16.42
2023-05-24T07:08:10.897Z,16.41
2023-05-24T07:10:40.854Z,16.58
2023-05-24T07:13:09.573Z,16.88
2023-05-24T07:15:37.688Z,17.13
2023-05-24T07:18:06.233Z,17.31
2023-05-24T07:20:34.593Z,17.42
2023-05-24T07:23:03.914Z,17.41
2023-05-24T07:25:32.889Z,17.57
2023-05-24T07:28:02.878Z,17.61
2023-05-24T07:30:32.144Z,17.60
2023-05-24T07:33:01.935Z,17.55
2023-05-24T07:35:31.187Z,17.53
2023-05-24T07:37:59.536Z,17.46
2023-05-24T07:40:27.654Z,17.36
2023-05-24T07:42:56.319Z,17.35
2023-05-24T07:45:26.178Z,17.29
2023-05-24T07:47:56.586Z,17.19
2023-05-24T07:50:25.308Z,17.08
2023-05-24T07:52:53.473Z,17.10
2023-05-24T07:55:21.750Z,17.02
2023-05-24T07:57:49.941Z,17.01
2023-05-24T08:00:20.338Z,17.05
2023-05-24T08:02:50.456Z,17.02
2023-05-24T08:05:19.095Z,16.98
2023-05-24T08:07:47.232Z,16.93
2023-05-24T08:10:15.450Z,16.89
2023-05-24T08:12:43.766Z,16.94
2023-05-24T08:15:12.483Z,16.94
2023-05-24T08:17:40.759Z,17.02
2023-05-24T08:20:14.061Z,17.00
2023-05-24T08:22:42.657Z,16.96
2023-05-24T08:25:12.074Z,16.86
2023-05-24T08:27:41.039Z,16.90
2023-05-24T08:30:11.266Z,16.92
2023-05-24T08:32:39.628Z,16.94
2023-05-24T08:35:20.383Z,17.04
2023-05-24T08:37:51.384Z,17.07
2023-05-24T08:40:19.931Z,17.09
2023-05-24T08:42:49.165Z,17.16
2023-05-24T08:45:18.111Z,17.14
2023-05-24T08:47:48.143Z,17.16
2023-05-24T08:50:16.801Z,17.16
2023-05-24T08:52:47.193Z,17.13
2023-05-24T08:55:17.296Z,17.05
2023-05-24T08:57:47.421Z,17.02
2023-05-24T09:00:16.829Z,17.11
2023-05-24T09:02:46.651Z,17.24
2023-05-24T09:05:17.418Z,17.26
2023-05-24T09:07:47.098Z,17.40
2023-05-24T09:10:17.137Z,17.40
2023-05-24T09:12:49.838Z,17.36
2023-05-24T09:15:18.069Z,17.55
2023-05-24T09:17:46.572Z,17.63
2023-05-24T09:20:15.056Z,17.62
2023-05-24T09:22:44.339Z,17.65
2023-05-24T09:25:15.330Z,17.65
2023-05-24T09:27:51.662Z,17.59
2023-05-24T09:30:20.524Z,17.65
2023-05-24T09:32:59.434Z,17.68
2023-05-24T09:35:28.602Z,17.68
2023-05-24T09:37:57.757Z,17.65
2023-05-24T09:40:26.362Z,17.78
2023-05-24T09:43:10.093Z,17.98
2023-05-24T09:45:44.509Z,18.10
2023-05-24T09:48:13.760Z,18.14
2023-05-24T09:50:42.389Z,18.10
2023-05-24T09:53:10.920Z,18.24
2023-05-24T09:55:39.721Z,18.39
2023-05-24T09:58:13.013Z,18.54
2023-05-24T10:00:42.914Z,18.71
2023-05-24T10:03:13.313Z,18.82
2023-05-24T10:05:44.710Z,18.96
2023-05-24T10:08:14.678Z,18.99
2023-05-24T10:10:44.914Z,18.95
2023-05-24T10:13:16.108Z,18.88
2023-05-24T10:15:45.345Z,18.88
2023-05-24T10:18:14.260Z,18.86
2023-05-24T10:20:43.232Z,18.85
2023-05-24T10:23:16.274Z,18.83
2023-05-24T10:25:53.971Z,18.69
2023-05-24T10:28:25.075Z,18.69
2023-05-24T10:31:03.575Z,18.72
2023-05-24T10:33:36.120Z,18.75
2023-05-24T10:36:08.001Z,18.72
2023-05-24T10:38:40.953Z,18.72
2023-05-24T10:41:09.810Z,18.73
2023-05-24T10:43:39.932Z,18.71
2023-05-24T10:46:10.886Z,18.63
2023-05-24T10:48:40.888Z,18.62
2023-05-24T10:51:38.812Z,18.60
2023-05-24T10:54:18.289Z,18.61
2023-05-24T10:56:48.361Z,18.50
2023-05-24T10:59:44.405Z,18.41
2023-05-24T11:02:14.708Z,18.34
2023-05-24T11:04:44.570Z,18.26
2023-05-24T11:07:15.447Z,18.20
2023-05-24T11:09:47.271Z,18.29
2023-05-24T11:12:17.865Z,18.36
2023-05-24T11:14:51.449Z,18.46
2023-05-24T11:17:22.467Z,18.51
2023-05-24T11:19:51.674Z,18.53
2023-05-24T11:22:22.026Z,18.58
2023-05-24T11:24:50.570Z,18.63
2023-05-24T11:27:18.716Z,18.80
2023-05-24T11:29:48.424Z,19.13
2023-05-24T11:32:19.401Z,19.51
2023-05-24T11:34:48.212Z,19.86
2023-05-24T11:37:18.389Z,20.09
2023-05-24T11:39:51.713Z,20.23
2023-05-24T11:42:19.927Z,20.28
2023-05-24T11:44:49.841Z,20.17
2023-05-24T11:47:22.163Z,20.06
2023-05-24T11:49:52.030Z,19.94
2023-05-24T11:52:20.262Z,20.02
2023-05-24T11:54:49.155Z,20.12
2023-05-24T11:57:19.978Z,20.32
2023-05-24T11:59:48.166Z,20.53
2023-05-24T12:02:16.421Z,20.43
2023-05-24T12:04:46.971Z,20.22
2023-05-24T12:07:16.439Z,20.20
2023-05-24T12:09:44.697Z,20.17
2023-05-24T12:12:12.893Z,20.16
2023-05-24T12:14:41.279Z,20.31
2023-05-24T12:17:17.316Z,20.47
2023-05-24T12:19:51.541Z,20.64
2023-05-24T12:22:19.845Z,20.74
2023-05-24T12:24:52.327Z,20.80
2023-05-24T12:27:21.196Z,20.92
2023-05-24T12:29:49.397Z,21.07
2023-05-24T12:32:19.056Z,21.08
2023-05-24T12:34:50.951Z,21.08
2023-05-24T12:37:19.771Z,21.07
2023-05-24T12:39:47.983Z,21.09
2023-05-24T12:42:16.230Z,21.11
2023-05-24T12:44:45.294Z,21.18
2023-05-24T12:47:13.645Z,21.15
2023-05-24T12:49:41.843Z,21.13
2023-05-24T12:52:12.741Z,21.17
2023-05-24T12:54:41.087Z,21.21
2023-05-24T12:57:09.249Z,21.37
2023-05-24T12:59:37.459Z,21.50
2023-05-24T13:02:05.779Z,21.63
2023-05-24T13:04:36.167Z,21.48
2023-05-24T13:07:04.630Z,21.28
2023-05-24T13:09:34.421Z,21.18
2023-05-24T13:12:03.117Z,21.22
2023-05-24T13:14:31.390Z,21.29
2023-05-24T13:16:59.717Z,21.32
2023-05-24T13:19:27.973Z,21.37
2023-05-24T13:21:56.175Z,21.42
2023-05-24T13:24:24.669Z,21.46
2023-05-24T13:26:54.998Z,21.37
2023-05-24T13:31:55.008Z,21.11
2023-05-24T13:34:24.849Z,21.02
2023-05-24T13:36:53.367Z,20.92
2023-05-24T13:39:22.505Z,20.87
2023-05-24T13:41:51.078Z,20.88
2023-05-24T13:44:21.519Z,20.92
2023-05-24T13:46:49.723Z,20.99
2023-05-24T13:49:18.001Z,21.03
2023-05-24T13:51:47.189Z,20.96
2023-05-24T13:54:15.371Z,20.83
2023-05-24T13:56:45.078Z,20.70
2023-05-24T13:59:13.351Z,20.62
2023-05-24T14:01:43.707Z,20.52
2023-05-24T14:04:11.907Z,20.38
2023-05-24T14:06:40.085Z,20.25
2023-05-24T14:09:08.550Z,20.20
2023-05-24T14:11:37.718Z,20.10
2023-05-24T14:16:37.343Z,20.04
2023-05-24T14:19:07.188Z,20.00
2023-05-24T14:21:35.359Z,19.96
2023-05-24T14:24:04.490Z,19.90
2023-05-24T14:26:32.593Z,19.87
2023-05-24T14:29:00.809Z,19.85
2023-05-24T14:31:28.960Z,19.78
2023-05-24T14:33:57.168Z,19.72
2023-05-24T14:36:26.763Z,19.73
2023-05-24T14:38:54.896Z,19.60
2023-05-24T14:41:23.764Z,19.60
2023-05-24T14:43:52.399Z,19.68
2023-05-24T14:46:20.617Z,19.68
2023-05-24T14:48:48.843Z,19.68
2023-05-24T14:51:17.004Z,19.63
2023-05-24T14:53:46.555Z,19.65
2023-05-24T14:56:15.044Z,19.58
2023-05-24T14:58:43.476Z,19.60
2023-05-24T15:01:11.754Z,19.67
2023-05-24T15:03:40.185Z,19.69
2023-05-24T15:06:08.649Z,19.65
2023-05-24T15:08:36.875Z,19.59
2023-05-24T15:11:07.488Z,19.59
2023-05-24T15:13:35.736Z,19.59
2023-05-24T15:16:03.972Z,19.58
2023-05-24T15:18:32.963Z,19.65
2023-05-24T15:21:01.214Z,19.72
2023-05-24T15:23:29.626Z,19.80
2023-05-24T15:25:58.166Z,19.88
2023-05-24T15:28:27.678Z,19.95
2023-05-24T15:30:57.088Z,19.92
2023-05-24T15:33:26.673Z,19.95
2023-05-24T15:35:54.971Z,19.92
2023-05-24T15:38:23.477Z,19.98
2023-05-24T15:40:52.410Z,19.91
2023-05-24T15:43:20.971Z,19.86
2023-05-24T15:45:50.574Z,19.83
2023-05-24T15:48:18.688Z,19.75
2023-05-24T15:53:19.766Z,19.58
2023-05-24T15:55:49.221Z,19.48
2023-05-24T15:58:17.397Z,19.37
2023-05-24T16:00:45.574Z,19.29
2023-05-24T16:03:16.051Z,19.28
2023-05-24T16:05:44.437Z,19.22
2023-05-24T16:08:13.364Z,19.19
2023-05-24T16:10:41.704Z,19.21
2023-05-24T16:13:10.191Z,19.18
2023-05-24T16:15:41.009Z,19.20
2023-05-24T16:18:09.638Z,19.20
2023-05-24T16:20:39.290Z,19.21
2023-05-24T16:23:07.424Z,19.12
2023-05-24T16:25:35.562Z,19.06
2023-05-24T16:28:03.843Z,19.00
2023-05-24T16:30:32.683Z,18.92
2023-05-24T16:33:00.911Z,18.89
2023-05-24T16:35:29.081Z,18.88
2023-05-24T16:37:58.832Z,18.82
2023-05-24T16:40:28.499Z,18.81
2023-05-24T16:42:56.804Z,18.78
2023-05-24T16:45:24.952Z,18.64
2023-05-24T16:47:53.217Z,18.58
2023-05-24T16:50:21.491Z,18.51
2023-05-24T16:52:50.104Z,18.41
2023-05-24T16:55:20.195Z,18.41
2023-05-24T16:57:48.324Z,18.34
2023-05-24T17:00:17.218Z,18.36
2023-05-24T17:02:45.376Z,18.32
2023-05-24T17:05:13.748Z,18.32
2023-05-24T17:07:42.817Z,18.37
2023-05-24T17:10:11.155Z,18.46
2023-05-24T17:12:40.700Z,18.47
2023-05-24T17:15:09.772Z,18.44
2023-05-24T17:17:38.047Z,18.40
2023-05-24T17:20:07.124Z,18.33
2023-05-24T17:22:35.286Z,18.29
2023-05-24T17:25:04.356Z,18.30
2023-05-24T17:27:32.685Z,18.24
2023-05-24T17:30:02.318Z,18.24
2023-05-24T17:32:30.473Z,18.26
2023-05-24T17:34:58.707Z,18.23
2023-05-24T17:37:26.844Z,18.27
2023-05-24T17:39:54.997Z,18.24
2023-05-24T17:42:24.968Z,18.26
2023-05-24T17:44:53.239Z,18.22
2023-05-24T17:47:22.888Z,18.19
2023-05-24T17:49:51.149Z,18.24
2023-05-24T17:52:20.127Z,18.22
2023-05-24T17:54:49.443Z,18.26
2023-05-24T17:57:17.673Z,18.29
2023-05-24T17:59:45.826Z,18.30
2023-05-24T18:02:14.019Z,18.28
2023-05-24T18:04:43.599Z,18.30
2023-05-24T18:07:11.791Z,18.27
2023-05-24T18:09:39.902Z,18.23
2023-05-24T18:12:08.872Z,18.14
2023-05-24T18:14:37.118Z,18.06
2023-05-24T18:17:05.820Z,17.98
2023-05-24T18:19:34.395Z,17.93
2023-05-24T18:22:04.236Z,17.91
2023-05-24T18:24:32.441Z,17.90
2023-05-24T18:27:02.300Z,17.87
2023-05-24T18:29:30.467Z,17.85
2023-05-24T18:31:58.676Z,17.78
2023-05-24T18:34:26.968Z,17.74
2023-05-24T18:36:55.692Z,17.71
2023-05-24T18:39:25.234Z,17.66
2023-05-24T18:41:53.451Z,17.65
2023-05-24T18:44:21.863Z,17.66
2023-05-24T18:46:50.318Z,17.65
2023-05-24T18:49:19.431Z,17.61
2023-05-24T18:51:47.693Z,17.56
2023-05-24T18:54:16.158Z,17.56
2023-05-24T18:56:45.787Z,17.59
2023-05-24T18:59:14.263Z,17.58
2023-05-24T19:01:42.596Z,17.59
2023-05-24T19:04:10.766Z,17.60
2023-05-24T19:06:39.310Z,17.59
2023-05-24T19:09:07.512Z,17.56
2023-05-24T19:11:35.655Z,17.53
2023-05-24T19:14:05.333Z,17.50
2023-05-24T19:16:33.572Z,17.49
2023-05-24T19:19:01.751Z,17.51
2023-05-24T19:21:29.929Z,17.53
2023-05-24T19:23:58.189Z,17.53
2023-05-24T19:26:26.566Z,17.47
2023-05-24T19:28:54.819Z,17.45
2023-05-24T19:31:25.708Z,17.44
2023-05-24T19:34:00.430Z,17.39
2023-05-24T19:36:31.179Z,17.40
2023-05-24T19:38:59.528Z,17.41
2023-05-24T19:41:27.872Z,17.39
2023-05-24T19:43:58.635Z,17.40
2023-05-24T19:46:28.567Z,17.41
2023-05-24T19:48:56.798Z,17.43
2023-05-24T19:51:24.963Z,17.46
2023-05-24T19:53:53.252Z,16.07
2023-05-24T19:56:21.958Z,15.97
2023-05-24T19:58:50.329Z,15.78
2023-05-24T20:01:18.654Z,15.45
2023-05-24T20:03:49.508Z,15.11
2023-05-24T20:06:18.191Z,14.93
2023-05-24T20:08:47.143Z,14.97
2023-05-24T20:11:15.301Z,14.97
2023-05-24T20:13:43.533Z,14.90
2023-05-24T20:16:11.918Z,14.73
2023-05-24T20:18:40.188Z,14.60
2023-05-24T20:21:09.792Z,14.63
2023-05-24T20:23:38.124Z,14.90
2023-05-24T20:26:06.502Z,-142.94
2023-05-24T20:28:34.812Z,-142.94
2023-05-24T20:31:02.959Z,-142.94
2023-05-24T20:33:31.132Z,-142.94
2023-05-24T20:35:59.810Z,-142.94
2023-05-24T20:38:29.464Z,-142.94
2023-05-24T20:40:57.721Z,-142.94
2023-05-24T20:43:25.916Z,-142.94
2023-05-24T20:45:54.244Z,-142.94
2023-05-24T20:48:23.384Z,-142.94
2023-05-24T20:50:51.528Z,-142.94
2023-05-24T20:53:20.157Z,-142.94
2023-05-24T20:55:49.903Z,-142.94
2023-05-24T20:58:18.653Z,-142.94
2023-05-24T21:00:46.920Z,-142.94
2023-05-24T21:03:15.396Z,-142.94
2023-05-24T21:05:44.140Z,-142.94
2023-05-24T21:08:12.583Z,-142.94
2023-05-24T21:10:40.780Z,-142.94
2023-05-24T21:13:10.357Z,-142.94
2023-05-24T21:15:38.505Z,-142.94
2023-05-24T21:18:06.850Z,-142.94
2023-05-24T21:20:35.166Z,-142.94
2023-05-24T21:23:03.505Z,-142.94
2023-05-24T21:25:31.744Z,-142.94
2023-05-24T21:27:59.925Z,-142.94
2023-05-24T21:30:30.991Z,-142.94
2023-05-24T21:32:59.346Z,-142.94
2023-05-24T21:35:27.996Z,-142.94
2023-05-24T21:37:57.252Z,-142.94
2023-05-24T21:40:25.470Z,-142.94
2023-05-24T21:42:53.698Z,-142.94
2023-05-24T21:45:21.879Z,-142.94
2023-05-24T21:47:51.449Z,-142.94
2023-05-24T21:50:19.756Z,-142.94
2023-05-24T21:52:48.026Z,-142.94
2023-05-24T21:55:16.360Z,-142.94
2023-05-24T21:57:44.491Z,-142.94
2023-05-24T22:00:14.112Z,-142.94
2023-05-24T22:02:42.681Z,-142.94
2023-05-24T22:05:12.549Z,-142.94
2023-05-24T22:07:40.901Z,-142.94
2023-05-24T22:10:10.503Z,-142.94
2023-05-24T22:12:38.899Z,-142.94
2023-05-24T22:15:08.178Z,-142.94
2023-05-24T22:17:37.213Z,-142.94
2023-05-24T22:20:06.708Z,-142.94
2023-05-24T22:22:38.274Z,-142.94
2023-05-24T22:25:06.545Z,-142.94
2023-05-24T22:27:35.999Z,-142.94
2023-05-24T22:30:04.345Z,-142.94
2023-05-24T22:32:32.667Z,-142.94
2023-05-24T22:35:00.889Z,-142.94
2023-05-24T22:37:29.037Z,-142.94
2023-05-24T22:39:58.652Z,-142.94
2023-05-24T22:42:26.839Z,-142.94
2023-05-24T22:44:54.958Z,-142.94
2023-05-24T22:47:24.128Z,-142.94
2023-05-24T22:49:54.148Z,-142.94
2023-05-24T22:52:24.608Z,-142.94
2023-05-24T22:54:52.785Z,-142.94
2023-05-24T22:57:22.995Z,-142.94
2023-05-24T22:59:51.342Z,-142.94
2023-05-24T23:02:19.573Z,-142.94
2023-05-24T23:04:48.495Z,-142.94
2023-05-24T23:07:17.199Z,-142.94
2023-05-24T23:11:17.344Z,15.74
2023-05-24T23:13:45.955Z,15.64
2023-05-24T23:16:18.002Z,15.55
2023-05-24T23:18:46.225Z,15.58
2023-05-24T23:21:16.836Z,15.64
2023-05-24T23:23:46.333Z,15.62
2023-05-24T23:26:16.012Z,15.53
2023-05-24T23:28:45.231Z,15.55
2023-05-24T23:31:13.516Z,15.58
2023-05-24T23:33:41.668Z,15.60
2023-05-24T23:36:10.670Z,15.66
2023-05-24T23:38:57.053Z,15.55
2023-05-24T23:41:27.373Z,15.57
2023-05-24T23:43:55.550Z,15.56
2023-05-24T23:46:23.730Z,15.63
2023-05-24T23:48:51.890Z,15.63
2023-05-24T23:51:20.446Z,15.67
2023-05-24T23:53:48.626Z,15.70
2023-05-24T23:56:16.815Z,15.68
2023-05-24T23:58:46.923Z,15.72
